Time;durP1;ratioP1;P1;durP2;ratioP2;P2;SDS_P1;SDS_P2;PMS_P1;PMS_P2;Temp;Humidity;BMP_temperature;BMP_pressure;BME280_temperature;BME280_humidity;BME280_pressure;Samples;Min_cycle;Max_cycle;Signal;HPM_P1;HPM_P2
2021/09/22 00:00:31;;;;;;;;;;;;;;;10.14;73.55;101179.83;117072;1189;23458;-78
2021/09/22 00:03:02;;;;;;;;;;;;;;;10.14;73.64;101176.46;117092;1189;21863;-78
2021/09/22 00:05:31;;;;;;;;;;;;;;;10.16;73.75;101171.58;117151;1189;21934;-77
2021/09/22 00:08:00;;;;;;;;;;;;;;;10.15;73.81;101168.48;117096;1189;23458;-78
2021/09/22 00:10:29;;;;;;;;;;;;;;;10.16;73.91;101166.87;117142;1189;23542;-75
2021/09/22 00:12:58;;;;;;;;;;;;;;;10.15;73.71;101163.76;117085;1189;21883;-78
2021/09/22 00:15:27;;;;;;;;;;;;;;;10.13;73.87;101159.70;117083;1187;21862;-77
2021/09/22 00:17:56;;;;;;;;;;;;;;;10.13;74.08;101158.85;117117;1189;22002;-77
2021/09/22 00:20:26;;;;;;;;;;;;;;;10.14;74.07;101160.68;117091;1189;22913;-76
2021/09/22 00:23:04;;;;;;;;;;;;;;;10.14;74.14;101159.39;117045;1189;22956;-76
2021/09/22 00:25:37;;;;;;;;;;;;;;;10.14;74.34;101157.64;117061;1189;21866;-77
2021/09/22 00:28:07;;;;;;;;;;;;;;;10.16;74.38;101159.47;117063;1189;22920;-76
2021/09/22 00:30:38;;;;;;;;;;;;;;;10.16;74.37;101159.60;117053;1189;22132;-77
2021/09/22 00:33:08;;;;;;;;;;;;;;;10.17;74.51;101159.02;117036;1189;22906;-77
2021/09/22 00:35:37;;;;;;;;;;;;;;;10.17;74.49;101155.27;117081;1189;22981;-78
2021/09/22 00:38:06;;;;;;;;;;;;;;;10.15;74.51;101152.11;117003;1189;22943;-79
2021/09/22 00:40:36;;;;;;;;;;;;;;;10.14;74.52;101149.03;117003;1189;22025;-77
2021/09/22 00:43:05;;;;;;;;;;;;;;;10.13;74.43;101146.30;117086;1189;22212;-78
2021/09/22 00:45:34;;;;;;;;;;;;;;;10.11;74.48;101140.11;117027;1188;22384;-78
2021/09/22 00:48:03;;;;;;;;;;;;;;;10.11;74.63;101139.31;117025;1189;24828;-78
2021/09/22 00:50:38;;;;;;;;;;;;;;;10.11;74.58;101135.98;117099;1189;23352;-78
2021/09/22 00:53:09;;;;;;;;;;;;;;;10.10;74.69;101127.60;117058;1188;21880;-77
2021/09/22 00:55:40;;;;;;;;;;;;;;;10.10;74.71;101121.46;117077;1189;21861;-78
2021/09/22 00:58:26;;;;;;;;;;;;;;;10.10;74.63;101122.31;117090;1189;23445;-77
2021/09/22 01:00:55;;;;;;;;;;;;;;;10.11;74.80;101118.76;117185;1188;21930;-77
2021/09/22 01:03:26;;;;;;;;;;;;;;;10.12;74.71;101119.84;117196;1189;21875;-77
2021/09/22 01:05:58;;;;;;;;;;;;;;;10.13;74.69;101119.09;117061;1189;23435;-77
2021/09/22 01:08:31;;;;;;;;;;;;;;;10.12;74.65;101118.93;117033;1188;21871;-77
2021/09/22 01:11:00;;;;;;;;;;;;;;;10.12;74.59;101118.77;117059;1189;22633;-77
2021/09/22 01:13:29;;;;;;;;;;;;;;;10.11;74.48;101119.95;116773;1192;22339;-77
2021/09/22 01:15:59;;;;;;;;;;;;;;;10.09;74.51;101116.23;116733;1192;22051;-77
2021/09/22 01:18:28;;;;;;;;;;;;;;;10.07;74.55;101111.52;116727;1192;21893;-77
2021/09/22 01:20:58;;;;;;;;;;;;;;;10.04;74.45;101110.75;116768;1192;21881;-76
2021/09/22 01:23:28;;;;;;;;;;;;;;;10.01;74.24;101112.69;116762;1192;21874;-77
2021/09/22 01:26:02;;;;;;;;;;;;;;;9.96;74.33;101107.83;116799;1192;21897;-78
2021/09/22 01:28:32;;;;;;;;;;;;;;;9.94;74.39;101106.46;116775;1192;22847;-78
2021/09/22 01:31:04;;;;;;;;;;;;;;;9.93;74.45;101106.05;116571;1189;21881;-79
2021/09/22 01:33:36;;;;;;;;;;;;;;;9.92;74.50;101106.33;117100;1189;21873;-80
2021/09/22 01:36:12;;;;;;;;;;;;;;;9.90;74.56;101103.66;117065;1189;21873;-77
2021/09/22 01:38:41;;;;;;;;;;;;;;;9.88;74.55;101099.09;117039;1189;23964;-78
2021/09/22 01:41:13;;;;;;;;;;;;;;;9.88;74.72;101095.17;117092;1186;21873;-78
2021/09/22 01:43:54;;;;;;;;;;;;;;;9.89;74.67;101090.16;117059;1189;21888;-78
2021/09/22 01:46:46;;;;;;;;;;;;;;;9.89;74.68;101086.30;117128;1188;22130;-78
2021/09/22 01:49:23;;;;;;;;;;;;;;;9.88;74.81;101089.06;116854;1192;22335;-78
2021/09/22 01:52:00;;;;;;;;;;;;;;;9.87;74.75;101094.58;116785;1192;22867;-78
2021/09/22 01:54:33;;;;;;;;;;;;;;;9.86;74.72;101089.38;116973;1192;21869;-78
2021/09/22 01:57:05;;;;;;;;;;;;;;;9.86;74.73;101079.90;116845;1192;21892;-78
2021/09/22 01:59:34;;;;;;;;;;;;;;;9.87;74.77;101079.13;116836;1192;21896;-78
2021/09/22 02:02:26;;;;;;;;;;;;;;;9.86;74.78;101077.94;116765;1192;22863;-77
2021/09/22 02:05:14;;;;;;;;;;;;;;;9.86;74.77;101077.77;116772;1191;21896;-79
2021/09/22 02:07:45;;;;;;;;;;;;;;;9.86;74.83;101076.53;116951;1189;21906;-79
2021/09/22 02:10:18;;;;;;;;;;;;;;;9.86;74.91;101077.10;117138;1188;24119;-79
2021/09/22 02:12:48;;;;;;;;;;;;;;;9.85;74.77;101076.26;117093;1187;22874;-79
2021/09/22 02:15:17;;;;;;;;;;;;;;;9.84;74.82;101071.80;117073;1187;21904;-79
2021/09/22 02:18:09;;;;;;;;;;;;;;;9.82;74.70;101073.97;116951;1188;21873;-79
2021/09/22 02:20:39;;;;;;;;;;;;;;;9.79;74.64;101079.30;117067;1189;21882;-78
2021/09/22 02:23:18;;;;;;;;;;;;;;;9.77;74.81;101079.86;117092;1188;22861;-77
2021/09/22 02:25:48;;;;;;;;;;;;;;;9.77;74.84;101076.21;117147;1188;21870;-77
2021/09/22 02:28:18;;;;;;;;;;;;;;;9.77;75.04;101084.41;117072;1189;24115;-77
2021/09/22 02:30:47;;;;;;;;;;;;;;;9.80;75.31;101090.15;117138;1188;21876;-78
2021/09/22 02:33:16;;;;;;;;;;;;;;;9.82;75.28;101090.70;117057;1188;23524;-77
2021/09/22 02:35:45;;;;;;;;;;;;;;;9.82;75.30;101095.19;117102;1187;21885;-77
2021/09/22 02:38:21;;;;;;;;;;;;;;;9.85;75.49;101089.71;117074;1189;21908;-78
2021/09/22 02:40:50;;;;;;;;;;;;;;;9.87;75.51;101087.01;117123;1189;22910;-77
2021/09/22 02:43:27;;;;;;;;;;;;;;;9.91;75.70;101086.86;117089;1188;21920;-77
2021/09/22 02:45:56;;;;;;;;;;;;;;;9.95;75.91;101085.08;116984;1189;22121;-78
2021/09/22 02:48:44;;;;;;;;;;;;;;;9.97;75.74;101084.56;116992;1189;22907;-78
2021/09/22 02:51:13;;;;;;;;;;;;;;;9.96;75.55;101083.16;116996;1188;21873;-78
2021/09/22 02:53:42;;;;;;;;;;;;;;;9.97;75.78;101083.08;117145;1188;21902;-78
2021/09/22 02:56:12;;;;;;;;;;;;;;;10.00;75.83;101081.39;117117;1188;21894;-78
2021/09/22 02:58:41;;;;;;;;;;;;;;;10.01;75.80;101079.40;117133;1188;22796;-78
2021/09/22 03:01:10;;;;;;;;;;;;;;;10.03;75.94;101075.14;117105;1188;21878;-78
2021/09/22 03:03:42;;;;;;;;;;;;;;;10.04;75.93;101072.58;117131;1188;22209;-78
2021/09/22 03:06:11;;;;;;;;;;;;;;;10.04;75.70;101075.25;117132;1188;22912;-78
2021/09/22 03:08:41;;;;;;;;;;;;;;;10.03;75.50;101076.58;117114;1188;22605;-78
2021/09/22 03:11:10;;;;;;;;;;;;;;;10.01;75.57;101078.81;117107;1188;21865;-75
2021/09/22 03:13:39;;;;;;;;;;;;;;;10.01;75.73;101076.95;117116;1189;21863;-78
2021/09/22 03:16:08;;;;;;;;;;;;;;;9.99;75.75;101068.61;117097;1189;22807;-78
2021/09/22 03:18:39;;;;;;;;;;;;;;;10.00;75.77;101068.67;117100;1189;22637;-78
2021/09/22 03:21:12;;;;;;;;;;;;;;;10.01;75.76;101067.79;117014;1188;23449;-76
2021/09/22 03:23:42;;;;;;;;;;;;;;;10.02;75.75;101071.21;117086;1188;24301;-77
2021/09/22 03:26:12;;;;;;;;;;;;;;;10.02;75.76;101068.73;117090;1188;24901;-76
2021/09/22 03:28:41;;;;;;;;;;;;;;;10.01;75.69;101071.77;117081;1188;23600;-77
2021/09/22 03:31:10;;;;;;;;;;;;;;;10.01;75.55;101076.59;117080;1188;21872;-77
2021/09/22 03:33:41;;;;;;;;;;;;;;;9.98;75.31;101077.59;117101;1188;23536;-77
2021/09/22 03:36:11;;;;;;;;;;;;;;;9.94;75.27;101081.13;117093;1189;23641;-77
2021/09/22 03:38:40;;;;;;;;;;;;;;;9.91;75.16;101076.46;117041;1188;21887;-78
2021/09/22 03:41:10;;;;;;;;;;;;;;;9.88;75.18;101078.35;117081;1188;23700;-77
2021/09/22 03:43:40;;;;;;;;;;;;;;;9.84;75.24;101080.05;116980;1188;22173;-77
2021/09/22 03:46:09;;;;;;;;;;;;;;;9.82;75.30;101084.83;117101;1188;22813;-77
2021/09/22 03:48:39;;;;;;;;;;;;;;;9.80;75.28;101090.67;117081;1185;21873;-77
2021/09/22 03:51:08;;;;;;;;;;;;;;;9.77;75.36;101090.98;117113;1188;21863;-77
2021/09/22 03:53:40;;;;;;;;;;;;;;;9.72;75.25;101091.98;117095;1188;22969;-77
2021/09/22 03:56:09;;;;;;;;;;;;;;;9.67;75.23;101093.34;117112;1186;21899;-78
2021/09/22 03:58:39;;;;;;;;;;;;;;;9.62;75.33;101091.13;117107;1188;21879;-77
2021/09/22 04:01:08;;;;;;;;;;;;;;;9.59;75.61;101091.38;117095;1188;23449;-78
2021/09/22 04:03:38;;;;;;;;;;;;;;;9.57;75.66;101085.12;117127;1185;22831;-78
2021/09/22 04:06:07;;;;;;;;;;;;;;;9.54;75.55;101084.02;117162;1188;22911;-78
2021/09/22 04:08:37;;;;;;;;;;;;;;;9.50;75.54;101088.91;117132;1188;21862;-78
2021/09/22 04:11:06;;;;;;;;;;;;;;;9.47;75.50;101091.71;117106;1184;22720;-78
2021/09/22 04:13:35;;;;;;;;;;;;;;;9.42;75.33;101097.92;117127;1188;21865;-78
2021/09/22 04:16:10;;;;;;;;;;;;;;;9.36;75.28;101099.48;117140;1188;21886;-79
2021/09/22 04:18:41;;;;;;;;;;;;;;;9.32;75.37;101100.20;117176;1188;21879;-79
2021/09/22 04:21:20;;;;;;;;;;;;;;;9.29;75.38;101099.11;117111;1188;23465;-76
2021/09/22 04:23:52;;;;;;;;;;;;;;;9.26;75.44;101104.46;117145;1188;22903;-77
2021/09/22 04:26:23;;;;;;;;;;;;;;;9.23;75.44;101109.00;117117;1188;21882;-76
2021/09/22 04:28:59;;;;;;;;;;;;;;;9.18;75.57;101110.27;117118;1187;22801;-76
2021/09/22 04:31:57;;;;;;;;;;;;;;;9.15;75.44;101113.96;116823;1188;21912;-76
2021/09/22 04:34:53;;;;;;;;;;;;;;;9.10;75.50;101117.19;117119;1188;21875;-77
2021/09/22 04:38:00;;;;;;;;;;;;;;;9.08;75.67;101124.58;116770;1191;21870;-76
2021/09/22 04:40:47;;;;;;;;;;;;;;;9.07;75.81;101125.88;116786;1191;23769;-75
2021/09/22 04:43:35;;;;;;;;;;;;;;;9.08;75.89;101128.48;116784;1191;22112;-76
2021/09/22 04:46:26;;;;;;;;;;;;;;;9.06;75.98;101131.59;116745;1191;23526;-76
2021/09/22 04:49:14;;;;;;;;;;;;;;;9.06;76.04;101132.27;116762;1192;21916;-77
2021/09/22 04:52:03;;;;;;;;;;;;;;;9.07;76.22;101133.45;116808;1191;21879;-77
2021/09/22 04:54:51;;;;;;;;;;;;;;;9.08;76.26;101134.11;116819;1191;21913;-75
2021/09/22 04:57:39;;;;;;;;;;;;;;;9.10;76.45;101134.28;116740;1191;22886;-75
2021/09/22 05:00:27;;;;;;;;;;;;;;;9.14;76.65;101138.80;116768;1191;23610;-76
2021/09/22 05:03:15;;;;;;;;;;;;;;;9.19;76.87;101133.94;116842;1191;21862;-76
2021/09/22 05:06:07;;;;;;;;;;;;;;;9.25;77.04;101129.02;116753;1191;22042;-76
2021/09/22 05:09:00;;;;;;;;;;;;;;;9.30;77.01;101127.67;116798;1188;21979;-76
2021/09/22 05:11:48;;;;;;;;;;;;;;;9.35;76.81;101130.94;117087;1188;21865;-76
2021/09/22 05:14:35;;;;;;;;;;;;;;;9.36;76.74;101131.52;117091;1188;23541;-76
2021/09/22 05:17:23;;;;;;;;;;;;;;;9.39;76.77;101135.66;117070;1189;21890;-78
2021/09/22 05:20:11;;;;;;;;;;;;;;;9.44;76.77;101138.05;117110;1188;21888;-79
2021/09/22 05:22:59;;;;;;;;;;;;;;;9.47;76.78;101139.55;117109;1188;23448;-76
2021/09/22 05:25:47;;;;;;;;;;;;;;;9.52;76.90;101142.95;117105;1188;23614;-76
2021/09/22 05:28:35;;;;;;;;;;;;;;;9.57;76.97;101143.31;117084;1184;22614;-76
2021/09/22 05:31:24;;;;;;;;;;;;;;;9.61;76.97;101144.86;117068;1189;22740;-76
2021/09/22 05:34:14;;;;;;;;;;;;;;;9.66;76.84;101145.48;116977;1188;21880;-76
2021/09/22 05:37:01;;;;;;;;;;;;;;;9.69;76.61;101148.20;117073;1188;22900;-76
2021/09/22 05:39:49;;;;;;;;;;;;;;;9.72;76.59;101151.25;117128;1188;23586;-76
2021/09/22 05:42:37;;;;;;;;;;;;;;;9.74;76.56;101158.41;117088;1188;21886;-76
2021/09/22 05:45:25;;;;;;;;;;;;;;;9.79;76.61;101162.37;117059;1188;22129;-76
2021/09/22 05:48:13;;;;;;;;;;;;;;;9.84;76.74;101161.17;117124;1188;21874;-76
2021/09/22 05:51:00;;;;;;;;;;;;;;;9.92;76.91;101165.56;117101;1188;21862;-76
2021/09/22 05:53:48;;;;;;;;;;;;;;;10.00;76.87;101168.17;117047;1189;22857;-78
2021/09/22 05:56:36;;;;;;;;;;;;;;;10.06;76.65;101165.63;117089;1188;21889;-77
2021/09/22 05:59:24;;;;;;;;;;;;;;;10.08;76.19;101172.48;117121;1188;21900;-78
2021/09/22 06:02:11;;;;;;;;;;;;;;;10.09;76.05;101181.75;117200;1187;22171;-78
2021/09/22 06:05:01;;;;;;;;;;;;;;;10.10;76.10;101181.45;117044;1187;23439;-77
2021/09/22 06:07:49;;;;;;;;;;;;;;;10.18;76.40;101184.12;117270;1187;22801;-78
2021/09/22 06:10:38;;;;;;;;;;;;;;;10.27;76.51;101183.58;117111;1188;21870;-78
2021/09/22 06:13:21;;;;;;;;;;;;;;;10.36;76.37;101185.22;117185;1188;23420;-77
2021/09/22 06:15:52;;;;;;;;;;;;;;;10.40;76.07;101189.23;117246;1184;22958;-77
2021/09/22 06:18:25;;;;;;;;;;;;;;;10.43;75.71;101194.61;117230;1187;23526;-77
2021/09/22 06:20:54;;;;;;;;;;;;;;;10.46;75.78;101195.67;117169;1188;24115;-78
2021/09/22 06:23:23;;;;;;;;;;;;;;;10.51;75.70;101196.94;117282;1187;21873;-78
2021/09/22 06:25:52;;;;;;;;;;;;;;;10.56;75.73;101200.20;117365;1187;23418;-77
2021/09/22 06:28:21;;;;;;;;;;;;;;;10.61;75.75;101199.73;117262;1187;21873;-77
2021/09/22 06:30:50;;;;;;;;;;;;;;;10.65;75.57;101205.15;117258;1187;21910;-77
2021/09/22 06:33:19;;;;;;;;;;;;;;;10.66;75.22;101205.80;117365;1187;21862;-77
2021/09/22 06:36:00;;;;;;;;;;;;;;;10.67;75.10;101207.11;117139;1188;21875;-77
2021/09/22 06:38:36;;;;;;;;;;;;;;;10.71;75.26;101205.52;117137;1188;21860;-78
2021/09/22 06:41:05;;;;;;;;;;;;;;;10.73;75.14;101214.40;117223;1188;21869;-77
2021/09/22 06:43:38;;;;;;;;;;;;;;;10.77;75.24;101211.55;117211;1188;21862;-77
2021/09/22 06:46:07;;;;;;;;;;;;;;;10.86;75.34;101215.00;117318;1187;21973;-78
2021/09/22 06:48:36;;;;;;;;;;;;;;;10.92;75.20;101210.64;117202;1188;21965;-77
2021/09/22 06:51:05;;;;;;;;;;;;;;;11.02;75.57;101208.08;117201;1184;22628;-77
2021/09/22 06:53:37;;;;;;;;;;;;;;;11.16;75.67;101213.23;117160;1188;21873;-76
2021/09/22 06:56:06;;;;;;;;;;;;;;;11.29;75.66;101210.01;117595;1187;21858;-77
2021/09/22 06:58:35;;;;;;;;;;;;;;;11.45;75.87;101209.98;116857;1191;21876;-77
2021/09/22 07:01:05;;;;;;;;;;;;;;;11.61;75.63;101209.13;116788;1191;21891;-77
2021/09/22 07:03:34;;;;;;;;;;;;;;;11.75;75.17;101208.08;116860;1191;21912;-77
2021/09/22 07:06:04;;;;;;;;;;;;;;;11.87;74.74;101214.11;116830;1191;23520;-78
2021/09/22 07:08:33;;;;;;;;;;;;;;;12.01;74.65;101218.74;116811;1188;23500;-77
2021/09/22 07:11:02;;;;;;;;;;;;;;;12.16;74.44;101218.10;116815;1187;21881;-77
2021/09/22 07:13:33;;;;;;;;;;;;;;;12.33;74.31;101218.48;116842;1191;23486;-77
2021/09/22 07:16:05;;;;;;;;;;;;;;;12.47;73.87;101225.88;116789;1190;21901;-77
2021/09/22 07:18:34;;;;;;;;;;;;;;;12.52;72.74;101229.55;116897;1191;22196;-77
2021/09/22 07:21:05;;;;;;;;;;;;;;;12.53;72.20;101235.79;116799;1191;21900;-77
2021/09/22 07:23:34;;;;;;;;;;;;;;;12.55;71.84;101239.17;116930;1188;21891;-77
2021/09/22 07:26:03;;;;;;;;;;;;;;;12.58;71.73;101242.05;117153;1188;21877;-78
2021/09/22 07:28:34;;;;;;;;;;;;;;;12.62;71.59;101247.05;117254;1187;21878;-77
2021/09/22 07:31:04;;;;;;;;;;;;;;;12.65;71.33;101242.36;116781;1191;22844;-79
2021/09/22 07:33:33;;;;;;;;;;;;;;;12.70;71.40;101246.79;116822;1191;22927;-78
2021/09/22 07:36:04;;;;;;;;;;;;;;;12.80;71.65;101256.84;117009;1191;23413;-78
2021/09/22 07:38:34;;;;;;;;;;;;;;;12.90;71.09;101259.88;116880;1191;22945;-78
2021/09/22 07:41:02;;;;;;;;;;;;;;;12.90;70.17;101259.48;116840;1187;21868;-78
2021/09/22 07:43:32;;;;;;;;;;;;;;;12.86;69.70;101262.82;116795;1191;21896;-78
2021/09/22 07:46:01;;;;;;;;;;;;;;;12.80;69.44;101264.86;116789;1191;21889;-78
2021/09/22 07:48:31;;;;;;;;;;;;;;;12.73;69.29;101262.58;116881;1187;23471;-78
2021/09/22 07:51:00;;;;;;;;;;;;;;;12.67;69.32;101260.36;117096;1187;21883;-78
2021/09/22 07:53:29;;;;;;;;;;;;;;;12.65;69.44;101263.40;117241;1187;21872;-77
2021/09/22 07:55:58;;;;;;;;;;;;;;;12.67;69.87;101262.85;117149;1188;22926;-78
2021/09/22 07:58:26;;;;;;;;;;;;;;;12.72;70.17;101268.50;117156;1188;21890;-77
2021/09/22 08:00:55;;;;;;;;;;;;;;;12.78;70.02;101262.06;117106;1188;22607;-78
2021/09/22 08:03:24;;;;;;;;;;;;;;;12.79;69.46;101265.98;117171;1187;21877;-78
2021/09/22 08:05:54;;;;;;;;;;;;;;;12.74;68.87;101271.30;117219;1187;21904;-78
2021/09/22 08:08:23;;;;;;;;;;;;;;;12.68;68.65;101275.19;117219;1186;23657;-78
2021/09/22 08:10:51;;;;;;;;;;;;;;;12.63;68.65;101278.11;117215;1184;22919;-77
2021/09/22 08:13:20;;;;;;;;;;;;;;;12.58;68.82;101268.91;117256;1187;22903;-78
2021/09/22 08:15:49;;;;;;;;;;;;;;;12.59;68.97;101271.73;117221;1184;21902;-78
2021/09/22 08:18:18;;;;;;;;;;;;;;;12.60;68.88;101274.81;117215;1188;21840;-78
2021/09/22 08:20:47;;;;;;;;;;;;;;;12.60;69.01;101273.42;117209;1188;21871;-78
2021/09/22 08:23:16;;;;;;;;;;;;;;;12.66;69.30;101271.17;117126;1185;21888;-78
2021/09/22 08:25:45;;;;;;;;;;;;;;;12.89;70.39;101269.91;117150;1187;23622;-78
2021/09/22 08:28:14;;;;;;;;;;;;;;;13.18;70.80;101272.29;117220;1187;21839;-78
2021/09/22 08:30:44;;;;;;;;;;;;;;;13.48;70.11;101271.98;117193;1187;21869;-79
2021/09/22 08:33:14;;;;;;;;;;;;;;;13.75;69.59;101269.58;117151;1188;22840;-78
2021/09/22 08:35:43;;;;;;;;;;;;;;;14.07;69.06;101264.91;117128;1184;24104;-78
2021/09/22 08:38:12;;;;;;;;;;;;;;;14.39;68.81;101262.23;117153;1188;23440;-78
2021/09/22 08:40:41;;;;;;;;;;;;;;;14.80;68.74;101266.86;117255;1188;21875;-78
2021/09/22 08:43:11;;;;;;;;;;;;;;;15.23;67.66;101264.86;117301;1187;21893;-78
2021/09/22 08:45:41;;;;;;;;;;;;;;;15.51;65.71;101265.55;117271;1183;23542;-78
2021/09/22 08:48:11;;;;;;;;;;;;;;;15.74;64.65;101268.36;117065;1189;21860;-77
2021/09/22 08:50:45;;;;;;;;;;;;;;;15.91;63.47;101271.39;116969;1190;22893;-77
2021/09/22 08:53:14;;;;;;;;;;;;;;;16.13;63.31;101276.77;117135;1190;22633;-78
2021/09/22 08:55:43;;;;;;;;;;;;;;;16.28;62.05;101277.98;116976;1190;21882;-78
2021/09/22 08:58:12;;;;;;;;;;;;;;;16.26;60.54;101278.82;116997;1187;22856;-78
2021/09/22 09:00:43;;;;;;;;;;;;;;;16.13;59.99;101276.52;117071;1190;23418;-77
2021/09/22 09:03:33;;;;;;;;;;;;;;;16.16;60.46;101278.91;117019;1190;21882;-77
2021/09/22 09:06:21;;;;;;;;;;;;;;;16.15;59.64;101282.74;116844;1191;21875;-77
2021/09/22 09:08:57;;;;;;;;;;;;;;;16.05;59.04;101281.61;116932;1187;21873;-77
2021/09/22 09:11:38;;;;;;;;;;;;;;;15.87;58.24;101286.70;116926;1190;21907;-78
2021/09/22 09:14:10;;;;;;;;;;;;;;;15.65;57.68;101288.60;116909;1190;21872;-78
2021/09/22 09:16:47;;;;;;;;;;;;;;;15.46;58.13;101288.49;116838;1191;22050;-77
2021/09/22 09:19:21;;;;;;;;;;;;;;;15.56;60.19;101283.71;116908;1190;22835;-78
2021/09/22 09:22:04;;;;;;;;;;;;;;;15.83;60.40;101282.80;116714;1190;21883;-77
2021/09/22 09:24:37;;;;;;;;;;;;;;;15.87;58.92;101279.45;116859;1190;21879;-77
2021/09/22 09:27:11;;;;;;;;;;;;;;;15.78;58.00;101278.42;116970;1190;21877;-77
2021/09/22 09:29:42;;;;;;;;;;;;;;;15.66;58.11;101274.73;117010;1190;22642;-77
2021/09/22 09:32:22;;;;;;;;;;;;;;;15.54;58.25;101277.01;116891;1187;22359;-77
2021/09/22 09:35:13;;;;;;;;;;;;;;;15.41;58.45;101281.36;117028;1190;22596;-77
2021/09/22 09:37:54;;;;;;;;;;;;;;;15.27;58.46;101281.17;116978;1190;23238;-77
2021/09/22 09:40:35;;;;;;;;;;;;;;;15.14;58.61;101276.70;117089;1187;22579;-77
2021/09/22 09:43:06;;;;;;;;;;;;;;;15.01;58.90;101272.27;117106;1188;21848;-77
2021/09/22 09:45:37;;;;;;;;;;;;;;;14.92;59.27;101268.23;117211;1188;23517;-77
2021/09/22 09:48:14;;;;;;;;;;;;;;;14.88;59.62;101269.88;117194;1187;21919;-77
2021/09/22 09:50:46;;;;;;;;;;;;;;;14.88;59.78;101271.81;117226;1187;23444;-77
2021/09/22 09:53:26;;;;;;;;;;;;;;;14.84;59.41;101274.41;117160;1188;23294;-77
2021/09/22 09:55:57;;;;;;;;;;;;;;;14.80;59.47;101279.86;117111;1188;21864;-77
2021/09/22 09:58:28;;;;;;;;;;;;;;;14.76;59.54;101283.10;117097;1188;22290;-77
2021/09/22 10:00:58;;;;;;;;;;;;;;;14.70;59.33;101286.68;117213;1188;21872;-77
2021/09/22 10:03:27;;;;;;;;;;;;;;;14.64;59.36;101285.58;117217;1185;21861;-78
2021/09/22 10:05:58;;;;;;;;;;;;;;;14.56;59.20;101283.11;117274;1184;21863;-76
2021/09/22 10:08:28;;;;;;;;;;;;;;;14.44;59.41;101286.91;117227;1187;22173;-77
2021/09/22 10:11:08;;;;;;;;;;;;;;;14.31;59.67;101284.39;117372;1188;21855;-77
2021/09/22 10:13:47;;;;;;;;;;;;;;;14.19;60.15;101285.95;117250;1187;21860;-78
2021/09/22 10:16:17;;;;;;;;;;;;;;;14.11;60.68;101285.54;117106;1190;22349;-77
2021/09/22 10:18:49;;;;;;;;;;;;;;;14.09;61.01;101282.52;116899;1187;21890;-77
2021/09/22 10:21:20;;;;;;;;;;;;;;;14.11;61.12;101280.05;117009;1189;22336;-76
2021/09/22 10:23:51;;;;;;;;;;;;;;;14.13;61.50;101280.02;116949;1190;21882;-77
2021/09/22 10:26:20;;;;;;;;;;;;;;;14.20;61.84;101284.05;116992;1190;21888;-78
2021/09/22 10:28:52;;;;;;;;;;;;;;;14.30;62.05;101283.28;117032;1187;21876;-77
2021/09/22 10:31:21;;;;;;;;;;;;;;;14.43;61.92;101274.44;116855;1190;22611;-77
2021/09/22 10:33:50;;;;;;;;;;;;;;;14.56;61.63;101269.61;116965;1188;23162;-77
2021/09/22 10:36:32;;;;;;;;;;;;;;;14.73;61.79;101271.61;117272;1187;21876;-77
2021/09/22 10:39:03;;;;;;;;;;;;;;;15.11;62.18;101274.58;117214;1188;21912;-77
2021/09/22 10:41:41;;;;;;;;;;;;;;;15.47;61.53;101271.50;117313;1188;22618;-77
2021/09/22 10:44:13;;;;;;;;;;;;;;;15.70;59.93;101270.79;117190;1188;23442;-77
2021/09/22 10:46:41;;;;;;;;;;;;;;;15.76;58.10;101272.61;117227;1188;21870;-77
2021/09/22 10:49:14;;;;;;;;;;;;;;;15.69;56.95;101273.05;116761;1191;23492;-77
2021/09/22 10:51:46;;;;;;;;;;;;;;;15.55;56.29;101271.20;116995;1190;22245;-77
2021/09/22 10:54:22;;;;;;;;;;;;;;;15.43;56.58;101274.77;116835;1191;21879;-78
2021/09/22 10:56:57;;;;;;;;;;;;;;;15.35;56.76;101271.48;116838;1187;24227;-78
2021/09/22 10:59:38;;;;;;;;;;;;;;;15.23;56.75;101268.27;116906;1191;21870;-78
2021/09/22 11:02:09;;;;;;;;;;;;;;;15.13;57.01;101264.36;116859;1188;23518;-78
2021/09/22 11:04:57;;;;;;;;;;;;;;;15.06;57.25;101265.51;116834;1190;21886;-78
2021/09/22 11:07:53;;;;;;;;;;;;;;;14.99;57.36;101267.08;117076;1188;21882;-77
2021/09/22 11:10:35;;;;;;;;;;;;;;;14.91;57.44;101269.37;117255;1184;22767;-78
2021/09/22 11:13:19;;;;;;;;;;;;;;;14.87;57.57;101268.44;117199;1188;21892;-78
2021/09/22 11:15:53;;;;;;;;;;;;;;;14.86;57.69;101264.15;117168;1188;21898;-77
2021/09/22 11:18:23;;;;;;;;;;;;;;;14.89;57.84;101259.72;116993;1187;21876;-77
2021/09/22 11:20:52;;;;;;;;;;;;;;;15.00;58.39;101257.33;117000;1190;23523;-78
2021/09/22 11:23:22;;;;;;;;;;;;;;;15.12;58.43;101251.73;117019;1190;23040;-78
2021/09/22 11:25:52;;;;;;;;;;;;;;;15.17;57.83;101252.94;116931;1190;21874;-77
2021/09/22 11:28:21;;;;;;;;;;;;;;;15.18;58.00;101250.99;117081;1189;23421;-78
2021/09/22 11:30:54;;;;;;;;;;;;;;;15.22;58.08;101253.23;116960;1190;23447;-78
2021/09/22 11:33:25;;;;;;;;;;;;;;;15.27;58.10;101255.73;116975;1190;21929;-78
2021/09/22 11:35:55;;;;;;;;;;;;;;;15.33;58.09;101257.82;117006;1188;22906;-77
2021/09/22 11:38:31;;;;;;;;;;;;;;;15.37;57.92;101258.30;117227;1188;22029;-78
2021/09/22 11:41:00;;;;;;;;;;;;;;;15.41;57.96;101258.86;117204;1188;21887;-78
2021/09/22 11:43:29;;;;;;;;;;;;;;;15.46;57.78;101258.86;117208;1188;22598;-78
2021/09/22 11:46:01;;;;;;;;;;;;;;;15.46;57.22;101255.63;116822;1191;22411;-78
2021/09/22 11:48:36;;;;;;;;;;;;;;;15.46;57.02;101255.23;116889;1187;21877;-78
2021/09/22 11:51:08;;;;;;;;;;;;;;;15.50;57.11;101258.12;116848;1187;21890;-78
2021/09/22 11:53:39;;;;;;;;;;;;;;;15.54;57.19;101260.89;116919;1190;21901;-77
2021/09/22 11:56:10;;;;;;;;;;;;;;;15.56;56.85;101266.06;116894;1190;21870;-78
2021/09/22 11:58:39;;;;;;;;;;;;;;;15.56;56.87;101263.18;116896;1191;21908;-77
2021/09/22 12:01:08;;;;;;;;;;;;;;;15.59;57.05;101260.33;117229;1191;23422;-78
2021/09/22 12:03:39;;;;;;;;;;;;;;;15.60;56.84;101260.92;117055;1188;23537;-76
2021/09/22 12:06:15;;;;;;;;;;;;;;;15.61;56.79;101257.22;117581;1183;22057;-76
2021/09/22 12:08:47;;;;;;;;;;;;;;;15.65;56.53;101257.71;117258;1187;21869;-77
2021/09/22 12:11:19;;;;;;;;;;;;;;;15.65;56.02;101258.88;117262;1187;21894;-77
2021/09/22 12:13:51;;;;;;;;;;;;;;;15.62;55.80;101258.94;117276;1187;21874;-77
2021/09/22 12:16:22;;;;;;;;;;;;;;;15.58;55.72;101257.45;117213;1187;21863;-77
2021/09/22 12:18:53;;;;;;;;;;;;;;;15.52;55.39;101254.92;117237;1187;22180;-76
2021/09/22 12:21:24;;;;;;;;;;;;;;;15.49;55.68;101253.31;117225;1187;23443;-78
2021/09/22 12:23:54;;;;;;;;;;;;;;;15.49;55.95;101253.88;117222;1188;21876;-77
2021/09/22 12:26:22;;;;;;;;;;;;;;;15.48;56.04;101251.79;117190;1188;22174;-76
2021/09/22 12:29:10;;;;;;;;;;;;;;;15.49;56.06;101253.18;117269;1187;22635;-77
2021/09/22 12:31:42;;;;;;;;;;;;;;;15.48;55.98;101247.22;117265;1184;22371;-76
2021/09/22 12:34:16;;;;;;;;;;;;;;;15.42;55.47;101250.73;117369;1184;21866;-77
2021/09/22 12:36:48;;;;;;;;;;;;;;;15.35;55.71;101251.09;117238;1184;23521;-77
2021/09/22 12:39:19;;;;;;;;;;;;;;;15.35;56.07;101246.50;116961;1191;21883;-78
2021/09/22 12:42:18;;;;;;;;;;;;;;;15.37;56.37;101240.12;116956;1187;21943;-78
2021/09/22 12:45:34;;;;;;;;;;;;;;;15.43;56.32;101243.02;117002;1187;22540;-78
2021/09/22 12:48:06;;;;;;;;;;;;;;;15.49;56.23;101250.31;117028;1191;22886;-78
2021/09/22 12:50:42;;;;;;;;;;;;;;;15.56;56.22;101250.40;116615;1192;22368;-77
2021/09/22 12:53:16;;;;;;;;;;;;;;;15.63;56.19;101249.38;116834;1191;22893;-77
2021/09/22 12:55:54;;;;;;;;;;;;;;;15.73;56.25;101249.12;116855;1192;23020;-77
2021/09/22 12:58:23;;;;;;;;;;;;;;;15.82;56.13;101245.66;116867;1188;21909;-78
2021/09/22 13:01:00;;;;;;;;;;;;;;;15.80;55.18;101242.80;116979;1189;23451;-78
2021/09/22 13:03:42;;;;;;;;;;;;;;;15.73;54.98;101239.90;117054;1188;21880;-76
2021/09/22 13:06:16;;;;;;;;;;;;;;;15.71;54.98;101240.45;116984;1188;23452;-76